Time;durP1;ratioP1;P1;durP2;ratioP2;P2;SDS_P1;SDS_P2;PMS_P1;PMS_P2;Temp;Humidity;BMP_temperature;BMP_pressure;BME280_temperature;BME280_humidity;BME280_pressure;Samples;Min_cycle;Max_cycle;Signal;HPM_P1;HPM_P2
2021/01/27 00:00:06;;;;;;;3.87;2.30;;;;;;;2.13;66.08;95849.31;5072213;28;20204;-75
2021/01/27 00:02:33;;;;;;;3.50;2.13;;;;;;;2.22;65.69;95851.16;5072442;28;20197;-76
2021/01/27 00:04:59;;;;;;;2.77;2.57;;;;;;;2.15;65.82;95853.34;5071711;28;20212;-76
2021/01/27 00:07:25;;;;;;;2.53;2.20;;;;;;;2.19;65.85;95857.25;5072453;28;20217;-76
2021/01/27 00:09:51;;;;;;;4.93;2.53;;;;;;;2.16;65.87;95861.75;5072303;28;20664;-76
2021/01/27 00:12:17;;;;;;;4.13;2.57;;;;;;;2.12;65.72;95863.72;5071825;28;20651;-76
2021/01/27 00:14:43;;;;;;;4.63;2.40;;;;;;;2.13;65.09;95856.91;5071969;28;20550;-76
2021/01/27 00:17:09;;;;;;;2.80;2.50;;;;;;;2.06;65.21;95859.94;5072035;28;20259;-74
2021/01/27 00:19:35;;;;;;;2.70;2.10;;;;;;;2.10;65.25;95852.91;5071796;28;20580;-76
2021/01/27 00:22:01;;;;;;;2.57;2.27;;;;;;;2.12;65.02;95851.03;5072038;28;20205;-76
2021/01/27 00:24:27;;;;;;;3.33;2.30;;;;;;;2.14;64.79;95846.66;5071784;28;20196;-76
2021/01/27 00:26:53;;;;;;;3.20;2.43;;;;;;;2.21;65.03;95850.34;5071930;28;20220;-75
2021/01/27 00:29:19;;;;;;;3.93;2.30;;;;;;;2.25;65.11;95845.81;5071766;28;20216;-75
2021/01/27 00:31:45;;;;;;;3.47;2.50;;;;;;;2.30;65.49;95842.00;5071576;28;20213;-76
2021/01/27 00:34:11;;;;;;;2.40;2.20;;;;;;;2.26;64.83;95842.38;5071221;28;20200;-76
2021/01/27 00:36:38;;;;;;;3.60;2.70;;;;;;;2.17;64.79;95833.72;5071164;28;20225;-76
2021/01/27 00:39:04;;;;;;;4.67;3.20;;;;;;;2.22;64.71;95830.81;5071681;28;20207;-75
2021/01/27 00:41:30;;;;;;;2.50;2.30;;;;;;;2.25;64.39;95828.06;5071428;28;20197;-76
2021/01/27 00:43:56;;;;;;;3.20;2.70;;;;;;;2.15;64.35;95816.97;5071537;28;20201;-75
2021/01/27 00:46:22;;;;;;;2.23;2.00;;;;;;;2.14;64.05;95818.72;5071253;28;20217;-75
2021/01/27 00:48:48;;;;;;;2.53;2.17;;;;;;;2.16;64.10;95813.50;5071376;28;20828;-75
2021/01/27 00:51:14;;;;;;;2.77;2.20;;;;;;;2.19;64.13;95818.34;5071384;28;20243;-76
2021/01/27 00:53:42;;;;;;;3.07;2.10;;;;;;;2.26;63.97;95824.59;5071216;28;20680;-76
2021/01/27 00:56:08;;;;;;;2.93;2.23;;;;;;;2.25;63.81;95817.88;5071066;28;20645;-76
2021/01/27 00:58:34;;;;;;;2.00;1.87;;;;;;;2.28;63.87;95827.81;5071198;28;20207;-76
2021/01/27 01:01:00;;;;;;;6.77;3.90;;;;;;;2.26;63.77;95817.78;5069988;28;20204;-76
2021/01/27 01:03:26;;;;;;;4.27;3.47;;;;;;;2.24;63.85;95818.81;5071199;28;20664;-76
2021/01/27 01:05:52;;;;;;;6.07;2.80;;;;;;;2.24;63.90;95819.63;5070718;28;20201;-76
2021/01/27 01:08:18;;;;;;;3.93;3.30;;;;;;;2.20;63.67;95818.25;5071098;28;20197;-75
2021/01/27 01:10:47;;;;;;;2.83;2.13;;;;;;;2.24;63.61;95816.28;5070860;28;20726;-76
2021/01/27 01:13:16;;;;;;;3.13;2.30;;;;;;;2.25;64.07;95806.00;5070994;28;20200;-76
2021/01/27 01:15:42;;;;;;;2.23;2.00;;;;;;;2.25;63.76;95815.34;5070455;28;20203;-76
2021/01/27 01:18:09;;;;;;;2.20;2.00;;;;;;;2.23;64.48;95807.03;5071059;28;20221;-76
2021/01/27 01:20:35;;;;;;;3.07;2.10;;;;;;;2.26;64.31;95809.34;5070449;28;20197;-75
2021/01/27 01:23:02;;;;;;;3.27;2.20;;;;;;;2.30;64.12;95811.53;5070787;28;20201;-76
2021/01/27 01:25:31;;;;;;;3.00;2.17;;;;;;;2.26;63.99;95817.78;5070570;28;20582;-76
2021/01/27 01:27:58;;;;;;;3.10;2.40;;;;;;;2.22;63.98;95813.84;5070416;28;20232;-76
2021/01/27 01:30:26;;;;;;;2.57;2.37;;;;;;;2.22;63.80;95810.50;5070862;28;20204;-76
2021/01/27 01:32:56;;;;;;;3.07;1.90;;;;;;;2.25;63.87;95808.53;5070490;28;20778;-76
2021/01/27 01:35:23;;;;;;;2.27;1.90;;;;;;;2.29;64.28;95796.41;5070066;28;20201;-76
2021/01/27 01:37:51;;;;;;;2.20;1.90;;;;;;;2.16;63.37;95799.06;5070642;28;20294;-76
2021/01/27 01:40:20;;;;;;;2.20;2.00;;;;;;;2.15;63.48;95797.47;5070534;28;20246;-76
2021/01/27 01:42:46;;;;;;;3.13;2.03;;;;;;;2.15;63.70;95796.66;5070341;28;20206;-75
2021/01/27 01:45:27;;;;;;;3.40;2.23;;;;;;;2.13;63.78;95790.88;5070355;28;20197;-75
2021/01/27 01:47:54;;;;;;;2.30;2.10;;;;;;;2.10;63.93;95781.81;5070681;28;20216;-76
2021/01/27 01:50:20;;;;;;;2.90;1.90;;;;;;;2.06;64.03;95775.34;5070490;28;20213;-76
2021/01/27 01:52:47;;;;;;;2.70;2.50;;;;;;;2.02;63.84;95771.41;5070211;28;20223;-76
2021/01/27 01:55:17;;;;;;;2.37;2.00;;;;;;;2.00;64.24;95760.56;5070079;28;20212;-76
2021/01/27 01:57:46;;;;;;;3.13;2.30;;;;;;;2.03;64.08;95763.69;5070672;28;20220;-76
2021/01/27 02:00:15;;;;;;;3.23;2.10;;;;;;;2.05;64.57;95754.22;5070386;28;20204;-75
2021/01/27 02:02:43;;;;;;;2.80;2.10;;;;;;;2.13;64.02;95755.34;5070281;28;20204;-76
2021/01/27 02:05:14;;;;;;;2.87;2.03;;;;;;;2.08;63.68;95755.72;5069917;28;20256;-76
2021/01/27 02:07:40;;;;;;;5.27;2.10;;;;;;;1.98;64.16;95758.16;5070106;28;20723;-75
2021/01/27 02:10:08;;;;;;;2.20;1.90;;;;;;;1.99;63.96;95753.88;5069961;28;20225;-75
2021/01/27 02:12:53;;;;;;;3.00;2.17;;;;;;;2.00;64.29;95756.31;5071276;28;20227;-75
2021/01/27 02:15:43;;;;;;;3.57;2.13;;;;;;;2.01;64.34;95745.22;5074120;28;20212;-76
2021/01/27 02:18:18;;;;;;;3.30;2.10;;;;;;;2.01;64.28;95740.16;5074202;28;20225;-75
2021/01/27 02:21:14;;;;;;;2.30;2.10;;;;;;;1.96;63.92;95746.50;5074165;28;20196;-76
2021/01/27 02:24:18;;;;;;;4.47;2.20;;;;;;;2.02;64.13;95746.84;5073896;28;20205;-76
2021/01/27 02:26:54;;;;;;;2.90;2.30;;;;;;;1.96;63.91;95737.16;5073768;28;20216;-76
2021/01/27 02:29:36;;;;;;;4.17;2.10;;;;;;;1.99;64.16;95744.53;5074059;28;20204;-77
2021/01/27 02:32:29;;;;;;;3.97;2.10;;;;;;;2.02;64.07;95743.50;5073919;28;20217;-76
2021/01/27 02:35:06;;;;;;;2.03;1.83;;;;;;;2.02;63.89;95733.34;5073436;28;20200;-76
2021/01/27 02:37:36;;;;;;;2.40;2.20;;;;;;;2.06;64.08;95735.53;5073906;28;20250;-76
2021/01/27 02:40:07;;;;;;;3.30;1.90;;;;;;;2.10;63.94;95741.16;5073884;28;20209;-75
2021/01/27 02:42:37;;;;;;;2.20;1.80;;;;;;;2.11;64.01;95731.81;5073647;28;20721;-76
2021/01/27 02:45:09;;;;;;;1.97;1.80;;;;;;;2.13;63.41;95730.75;5073803;28;20204;-76
2021/01/27 02:47:43;;;;;;;2.60;2.03;;;;;;;2.13;63.33;95732.47;5073708;28;20224;-76
2021/01/27 02:50:15;;;;;;;3.53;2.27;;;;;;;2.10;63.13;95735.28;5073927;28;20306;-75
2021/01/27 02:52:47;;;;;;;2.50;2.30;;;;;;;2.06;63.71;95727.09;5073432;28;20220;-76
2021/01/27 02:55:17;;;;;;;2.30;2.10;;;;;;;1.99;63.41;95724.22;5073224;28;20706;-76
2021/01/27 02:57:49;;;;;;;2.67;2.07;;;;;;;2.01;63.27;95726.63;5073544;28;20221;-76
2021/01/27 03:00:20;;;;;;;2.20;2.00;;;;;;;1.93;62.76;95724.69;5073625;28;20204;-76
2021/01/27 03:02:51;;;;;;;2.27;2.07;;;;;;;1.93;62.83;95721.34;5073409;28;20201;-76
2021/01/27 03:05:22;;;;;;;3.20;2.10;;;;;;;1.91;63.36;95721.50;5073119;28;20216;-76
2021/01/27 03:07:52;;;;;;;2.33;2.00;;;;;;;1.93;62.62;95719.63;5073154;28;20270;-76
2021/01/27 03:10:21;;;;;;;2.23;2.03;;;;;;;1.95;62.98;95724.56;5073065;28;20217;-76
2021/01/27 03:12:48;;;;;;;2.70;2.00;;;;;;;1.96;63.11;95726.19;5073112;28;20228;-76
2021/01/27 03:15:15;;;;;;;2.37;2.10;;;;;;;1.98;63.39;95724.34;5073142;28;20205;-76
2021/01/27 03:17:43;;;;;;;2.40;2.10;;;;;;;1.97;63.00;95725.25;5073222;28;20216;-75
2021/01/27 03:20:15;;;;;;;2.80;2.20;;;;;;;1.96;62.65;95718.56;5073358;28;20197;-76
2021/01/27 03:22:45;;;;;;;3.43;2.07;;;;;;;1.93;62.65;95716.28;5072961;28;20216;-76
2021/01/27 03:25:16;;;;;;;3.37;2.00;;;;;;;1.93;62.53;95706.13;5071677;28;20278;-76
2021/01/27 03:27:51;;;;;;;2.53;2.20;;;;;;;1.88;62.03;95708.22;5072839;28;20220;-76
2021/01/27 03:30:18;;;;;;;1.90;1.70;;;;;;;1.85;61.98;95711.00;5072973;28;20199;-75
2021/01/27 03:32:51;;;;;;;2.80;2.00;;;;;;;1.81;61.78;95707.09;5072645;28;20638;-76
2021/01/27 03:35:26;;;;;;;2.97;2.10;;;;;;;1.77;62.02;95703.97;5072337;28;20278;-76
2021/01/27 03:37:59;;;;;;;3.53;2.10;;;;;;;1.80;62.21;95711.34;5072866;28;20212;-76
2021/01/27 03:40:26;;;;;;;2.97;2.03;;;;;;;1.76;61.98;95702.38;5072996;28;20204;-76
2021/01/27 03:43:02;;;;;;;3.10;2.00;;;;;;;1.74;61.79;95699.13;5072574;28;20676;-76
2021/01/27 03:45:30;;;;;;;2.20;2.00;;;;;;;1.68;62.28;95708.06;5072629;28;20196;-75
2021/01/27 03:48:05;;;;;;;2.77;2.20;;;;;;;1.72;62.41;95703.56;5072443;28;20272;-75
2021/01/27 03:50:31;;;;;;;3.10;2.10;;;;;;;1.68;62.63;95704.72;5073029;28;20200;-76
2021/01/27 03:53:02;;;;;;;2.37;2.00;;;;;;;1.70;62.57;95698.59;5072617;28;20484;-76
2021/01/27 03:55:34;;;;;;;2.73;2.30;;;;;;;1.70;62.61;95701.13;5072311;28;20208;-75
2021/01/27 03:58:04;;;;;;;2.00;1.80;;;;;;;1.72;62.40;95708.63;5072058;28;20274;-76
2021/01/27 04:00:31;;;;;;;2.23;2.03;;;;;;;1.72;62.02;95708.63;5072250;28;20262;-76
2021/01/27 04:03:14;;;;;;;2.97;2.10;;;;;;;1.70;62.36;95710.47;5072352;28;20223;-76
2021/01/27 04:05:40;;;;;;;2.23;2.03;;;;;;;1.65;61.79;95703.22;5072041;28;20853;-76
2021/01/27 04:08:07;;;;;;;2.03;1.83;;;;;;;1.62;61.79;95707.72;5072289;28;20229;-76
2021/01/27 04:10:33;;;;;;;2.87;1.90;;;;;;;1.57;62.41;95700.44;5072000;28;20235;-75
2021/01/27 04:12:59;;;;;;;2.30;2.10;;;;;;;1.56;62.74;95695.50;5071989;28;20856;-76
2021/01/27 04:15:26;;;;;;;2.20;1.87;;;;;;;1.58;62.22;95694.44;5072088;28;20322;-76
2021/01/27 04:17:52;;;;;;;2.07;1.87;;;;;;;1.60;62.53;95690.06;5072087;28;20613;-76
2021/01/27 04:20:19;;;;;;;3.20;2.17;;;;;;;1.60;62.42;95679.09;5072057;28;20201;-76
2021/01/27 04:22:44;;;;;;;3.83;2.03;;;;;;;1.58;62.48;95686.84;5071782;28;20197;-75
2021/01/27 04:25:13;;;;;;;2.07;1.87;;;;;;;1.58;62.24;95681.75;5071826;28;20787;-76
2021/01/27 04:27:39;;;;;;;1.93;1.70;;;;;;;1.56;61.98;95687.88;5071739;28;20231;-75
2021/01/27 04:30:07;;;;;;;2.30;1.93;;;;;;;1.56;62.06;95690.41;5071887;28;20205;-76
2021/01/27 04:32:33;;;;;;;4.20;2.10;;;;;;;1.54;61.82;95689.75;5071928;28;20224;-76
2021/01/27 04:34:59;;;;;;;2.37;1.93;;;;;;;1.50;61.82;95694.25;5071251;28;20287;-76
2021/01/27 04:37:25;;;;;;;2.90;1.97;;;;;;;1.51;62.11;95695.06;5071236;28;20225;-76
2021/01/27 04:39:51;;;;;;;2.00;1.80;;;;;;;1.51;62.27;95695.06;5071610;28;20208;-76
2021/01/27 04:42:24;;;;;;;3.13;2.43;;;;;;;1.51;62.38;95690.78;5071634;28;20200;-76
2021/01/27 04:44:52;;;;;;;2.10;1.87;;;;;;;1.48;61.65;95692.75;5071331;28;20208;-76
2021/01/27 04:47:25;;;;;;;3.47;2.00;;;;;;;1.46;61.98;95685.25;5071304;28;20729;-76
2021/01/27 04:49:53;;;;;;;2.00;1.80;;;;;;;1.44;62.14;95683.75;5071442;28;20250;-76
2021/01/27 04:52:39;;;;;;;2.63;2.20;;;;;;;1.43;61.61;95672.81;5071422;28;20225;-76
2021/01/27 04:55:21;;;;;;;2.10;1.90;;;;;;;1.44;62.01;95682.03;5071302;28;20200;-76
2021/01/27 04:58:00;;;;;;;2.27;2.00;;;;;;;1.39;61.97;95673.97;5071150;28;20220;-76
2021/01/27 05:00:41;;;;;;;3.40;1.90;;;;;;;1.41;61.89;95674.66;5071042;28;20200;-76
2021/01/27 05:03:41;;;;;;;1.83;1.70;;;;;;;1.36;61.69;95664.84;5071109;28;20203;-76
2021/01/27 05:06:11;;;;;;;2.20;2.00;;;;;;;1.33;61.62;95664.31;5071099;28;20555;-76
2021/01/27 05:08:42;;;;;;;1.90;1.80;;;;;;;1.36;61.69;95658.97;5071017;28;20262;-76
2021/01/27 05:11:14;;;;;;;3.27;1.93;;;;;;;1.32;61.94;95655.91;5070888;28;20212;-75
2021/01/27 05:13:44;;;;;;;2.60;1.90;;;;;;;1.30;61.94;95655.22;5070935;28;20205;-75
2021/01/27 05:16:14;;;;;;;4.97;1.90;;;;;;;1.34;62.28;95648.16;5071024;28;20201;-76
2021/01/27 05:18:40;;;;;;;3.30;2.00;;;;;;;1.34;62.07;95645.63;5070897;28;20257;-76
2021/01/27 05:21:17;;;;;;;3.67;2.00;;;;;;;1.34;61.95;95648.97;5070762;28;20197;-76
2021/01/27 05:23:43;;;;;;;2.20;1.57;;;;;;;1.34;61.75;95643.91;5070471;28;20208;-75
2021/01/27 05:26:12;;;;;;;2.20;1.83;;;;;;;1.33;62.09;95644.81;5070638;28;20228;-76
2021/01/27 05:28:43;;;;;;;4.57;2.27;;;;;;;1.33;61.61;95642.28;5070490;28;20682;-76
2021/01/27 05:31:09;;;;;;;2.00;1.53;;;;;;;1.34;62.11;95636.28;5070930;28;20611;-76
2021/01/27 05:33:47;;;;;;;1.80;1.70;;;;;;;1.33;62.45;95636.41;5070888;28;20207;-76
2021/01/27 05:36:17;;;;;;;2.20;1.67;;;;;;;1.31;62.10;95631.47;5070226;28;20200;-76
2021/01/27 05:38:43;;;;;;;1.97;1.77;;;;;;;1.33;61.77;95626.28;5070652;28;20611;-76
2021/01/27 05:41:19;;;;;;;3.07;2.00;;;;;;;1.28;61.92;95619.00;5070530;28;20204;-76
2021/01/27 05:43:48;;;;;;;2.33;1.73;;;;;;;1.27;61.96;95629.28;5070326;28;20832;-75
2021/01/27 05:46:16;;;;;;;2.33;1.80;;;;;;;1.29;62.09;95630.75;5070691;28;20726;-76
2021/01/27 05:48:45;;;;;;;1.73;1.53;;;;;;;1.25;61.89;95615.91;5058381;28;20201;-76
2021/01/27 05:51:18;;;;;;;2.37;1.70;;;;;;;1.23;61.62;95612.66;5049202;28;20200;-76
2021/01/27 05:53:44;;;;;;;2.10;1.90;;;;;;;1.24;61.72;95614.28;5046273;28;20194;-74
2021/01/27 05:56:15;;;;;;;1.90;1.80;;;;;;;1.24;61.81;95606.69;5044253;28;20220;-75
2021/01/27 05:58:47;;;;;;;2.83;1.83;;;;;;;1.25;62.10;95604.03;5049623;28;20606;-76
2021/01/27 06:01:20;;;;;;;3.67;1.93;;;;;;;1.27;61.67;95589.50;5050080;28;20629;-76
2021/01/27 06:03:56;;;;;;;4.67;2.17;;;;;;;1.21;62.04;95602.66;5050044;28;20213;-76
2021/01/27 06:06:23;;;;;;;2.30;2.03;;;;;;;1.23;61.98;95598.28;5050174;28;20236;-76
2021/01/27 06:08:51;;;;;;;2.10;1.90;;;;;;;1.21;61.96;95599.31;5049994;28;20204;-75
2021/01/27 06:11:17;;;;;;;2.43;2.07;;;;;;;1.17;62.05;95603.00;5049850;28;20631;-76
2021/01/27 06:13:43;;;;;;;3.20;1.83;;;;;;;1.14;61.75;95600.72;5049736;28;20581;-75
2021/01/27 06:16:22;;;;;;;4.27;2.00;;;;;;;1.15;62.24;95603.13;5050201;28;20572;-76
2021/01/27 06:18:48;;;;;;;2.03;1.70;;;;;;;1.08;62.16;95594.38;5049985;28;20205;-76
2021/01/27 06:21:44;;;;;;;2.63;2.00;;;;;;;1.08;62.06;95596.13;5049790;28;20209;-76
2021/01/27 06:24:34;;;;;;;2.70;2.10;;;;;;;1.04;61.86;95590.47;5040940;28;20212;-76
2021/01/27 06:27:33;;;;;;;2.30;1.70;;;;;;;1.03;61.24;95594.72;5050168;28;20748;-76
2021/01/27 06:30:15;;;;;;;2.80;1.83;;;;;;;1.06;61.63;95595.44;5049959;28;20205;-75
2021/01/27 06:33:13;;;;;;;3.73;2.03;;;;;;;1.05;61.90;95599.69;5050007;28;20217;-76
2021/01/27 06:35:52;;;;;;;2.50;1.80;;;;;;;1.10;61.68;95584.13;5023497;28;20213;-76
2021/01/27 06:38:41;;;;;;;2.50;1.70;;;;;;;1.07;61.56;95582.63;5050005;28;20225;-77
2021/01/27 06:41:28;;;;;;;1.83;1.70;;;;;;;1.04;61.54;95582.88;5050145;28;20201;-76
2021/01/27 06:44:21;;;;;;;2.87;1.80;;;;;;;1.03;60.86;95584.59;5049895;28;20277;-76
2021/01/27 06:47:21;;;;;;;3.07;1.80;;;;;;;1.03;60.81;95591.41;5050120;28;20720;-77
2021/01/27 06:50:07;;;;;;;3.67;1.70;;;;;;;0.98;60.83;95586.66;5046271;28;20204;-77
2021/01/27 06:52:56;;;;;;;2.10;1.50;;;;;;;1.01;60.80;95581.38;5048839;28;20222;-77
2021/01/27 06:55:31;;;;;;;2.50;1.57;;;;;;;1.01;60.30;95583.09;5050307;28;20212;-76
2021/01/27 06:58:23;;;;;;;3.43;1.90;;;;;;;1.00;60.66;95574.69;5050766;28;20217;-77
2021/01/27 07:01:08;;;;;;;2.43;1.67;;;;;;;1.07;61.16;95580.09;5054533;28;20668;-77
2021/01/27 07:04:00;;;;;;;2.33;1.80;;;;;;;1.10;60.56;95579.06;5054771;28;20204;-77
2021/01/27 07:06:44;;;;;;;2.20;2.00;;;;;;;1.13;60.70;95578.81;5054754;28;20221;-77
2021/01/27 07:09:30;;;;;;;3.43;1.90;;;;;;;1.18;60.25;95572.44;5049766;28;20208;-77
2021/01/27 07:12:09;;;;;;;2.77;1.70;;;;;;;1.15;60.55;95582.84;5053483;28;20225;-77
2021/01/27 07:15:03;;;;;;;6.33;2.00;;;;;;;1.10;60.23;95574.78;5053417;28;20248;-76
2021/01/27 07:17:51;;;;;;;5.10;1.97;;;;;;;1.15;60.51;95580.31;5049268;28;20753;-76
2021/01/27 07:20:25;;;;;;;2.47;1.73;;;;;;;1.20;60.43;95573.16;5052798;28;20202;-76
2021/01/27 07:22:58;;;;;;;4.33;2.30;;;;;;;1.26;60.03;95567.59;5053238;28;20197;-77
2021/01/27 07:25:39;;;;;;;3.80;2.07;;;;;;;1.31;63.95;95567.25;5053262;28;20206;-76
2021/01/27 07:28:12;;;;;;;3.83;1.83;;;;;;;1.33;60.73;95565.41;5053117;28;20225;-75
2021/01/27 07:30:45;;;;;;;2.37;1.70;;;;;;;2.30;87.34;95572.75;5055331;28;20204;-77
2021/01/27 07:33:18;;;;;;;3.90;1.90;;;;;;;3.21;75.18;95550.69;5055610;28;20221;-79
2021/01/27 07:35:58;;;;;;;5.80;2.10;;;;;;;3.70;60.13;95557.38;5054688;28;20603;-76
2021/01/27 07:38:29;;;;;;;3.70;1.90;;;;;;;3.29;55.43;95538.88;5053750;28;20197;-76
2021/01/27 07:41:00;;;;;;;4.63;2.13;;;;;;;2.84;55.70;95535.22;5053319;28;20264;-77
2021/01/27 07:43:31;;;;;;;5.00;2.37;;;;;;;2.48;56.38;95527.22;5053877;28;20251;-76
2021/01/27 07:45:59;;;;;;;4.10;1.80;;;;;;;2.08;56.02;95535.59;5053472;28;20212;-77
2021/01/27 07:48:30;;;;;;;4.30;2.07;;;;;;;1.95;57.08;95536.72;5052999;28;20300;-77
2021/01/27 07:50:59;;;;;;;3.67;1.80;;;;;;;1.91;57.17;95533.63;5052028;28;20224;-75
2021/01/27 07:53:31;;;;;;;2.70;2.00;;;;;;;1.83;57.53;95532.63;5052427;28;20244;-76
2021/01/27 07:56:05;;;;;;;4.97;2.57;;;;;;;1.88;57.79;95538.97;5053461;28;20209;-76
2021/01/27 07:58:40;;;;;;;2.90;1.83;;;;;;;1.85;57.71;95539.19;5053336;28;20198;-77
2021/01/27 08:01:12;;;;;;;2.27;1.70;;;;;;;1.85;57.58;95539.19;5053259;28;20201;-77
2021/01/27 08:03:44;;;;;;;3.77;1.90;;;;;;;1.84;57.94;95544.41;5052919;28;20284;-76
2021/01/27 08:06:13;;;;;;;2.33;2.00;;;;;;;1.92;58.33;95535.25;5071986;28;20205;-76
2021/01/27 08:08:54;;;;;;;2.57;1.83;;;;;;;1.95;57.85;95531.63;5073058;28;20196;-77
2021/01/27 08:11:29;;;;;;;3.23;1.77;;;;;;;1.99;57.84;95543.16;5071950;28;20293;-76
2021/01/27 08:13:56;;;;;;;3.27;2.00;;;;;;;2.02;57.59;95536.09;5072748;28;20196;-75
2021/01/27 08:16:39;;;;;;;3.37;1.60;;;;;;;2.11;57.77;95539.63;5072585;28;20362;-77
2021/01/27 08:19:27;;;;;;;5.60;1.90;;;;;;;2.21;57.38;95540.47;5072527;28;20714;-78
2021/01/27 08:21:56;;;;;;;2.47;1.90;;;;;;;2.31;56.56;95540.53;5072091;28;20189;-77
2021/01/27 08:24:49;;;;;;;2.60;1.83;;;;;;;2.50;56.59;95522.00;5071540;28;20205;-78
2021/01/27 08:27:39;;;;;;;3.27;2.77;;;;;;;2.75;56.57;95516.44;5071687;28;20225;-77
2021/01/27 08:30:33;;;;;;;2.53;1.80;;;;;;;2.80;56.31;95523.69;5047069;28;20237;-78
2021/01/27 08:33:43;;;;;;;7.13;2.07;;;;;;;2.88;56.56;95531.47;5072861;28;20228;-78
2021/01/27 08:36:12;;;;;;;4.47;1.90;;;;;;;2.93;56.71;95529.34;5071532;28;20238;-78
2021/01/27 08:38:41;;;;;;;3.40;1.93;;;;;;;2.95;56.37;95528.28;5071741;28;20197;-79
2021/01/27 08:41:12;;;;;;;5.90;2.17;;;;;;;3.06;56.17;95542.63;5073129;28;20672;-79
2021/01/27 08:43:41;;;;;;;4.37;1.80;;;;;;;3.18;55.86;95540.75;5073542;28;20196;-78
2021/01/27 08:46:40;;;;;;;5.50;2.03;;;;;;;3.27;55.26;95537.44;5072100;28;20295;-78
2021/01/27 08:49:07;;;;;;;2.83;1.83;;;;;;;3.29;55.12;95533.00;5071567;28;20270;-78
2021/01/27 08:51:41;;;;;;;4.63;1.90;;;;;;;3.25;54.85;95531.66;5071376;28;20197;-79
2021/01/27 08:54:27;;;;;;;3.90;2.10;;;;;;;3.26;54.98;95541.72;5071565;28;20212;-79
2021/01/27 08:57:20;;;;;;;6.63;4.07;;;;;;;3.21;54.28;95550.69;5070858;28;20879;-77
2021/01/27 08:59:56;;;;;;;2.03;1.70;;;;;;;3.18;53.89;95546.66;5071221;28;20204;-78
2021/01/27 09:02:45;;;;;;;3.97;1.70;;;;;;;3.16;54.38;95547.72;5071047;28;20200;-78
2021/01/27 09:05:18;;;;;;;3.67;2.00;;;;;;;3.25;54.57;95540.09;5071719;28;20216;-78
2021/01/27 09:07:49;;;;;;;4.57;1.80;;;;;;;3.38;54.97;95535.56;5071456;28;20256;-78
2021/01/27 09:10:17;;;;;;;3.70;2.20;;;;;;;3.56;55.24;95527.25;5072338;28;20695;-78
2021/01/27 09:12:46;;;;;;;3.07;2.03;;;;;;;3.62;54.71;95526.72;5071368;28;20256;-79
2021/01/27 09:15:22;;;;;;;8.60;2.13;;;;;;;3.71;54.67;95536.06;5070835;28;20200;-78
2021/01/27 09:17:48;;;;;;;2.87;2.00;;;;;;;3.75;54.06;95543.31;5071036;28;20567;-78
2021/01/27 09:20:23;;;;;;;3.27;2.20;;;;;;;3.74;53.51;95535.81;5071048;28;20201;-79
2021/01/27 09:22:56;;;;;;;2.93;1.90;;;;;;;3.74;53.38;95536.59;5070028;28;20219;-78
2021/01/27 09:25:25;;;;;;;2.57;2.10;;;;;;;3.73;52.66;95541.84;5070654;28;20204;-78
2021/01/27 09:28:03;;;;;;;8.20;5.67;;;;;;;3.79;53.05;95541.31;5070796;28;20256;-78
2021/01/27 09:30:29;;;;;;;17.70;11.77;;;;;;;3.91;53.68;95536.84;5070560;28;20200;-78
2021/01/27 09:33:08;;;;;;;9.07;6.40;;;;;;;3.96;53.55;95527.88;5070543;28;20575;-79
2021/01/27 09:35:34;;;;;;;6.40;3.23;;;;;;;3.98;53.62;95527.72;5070331;28;20200;-78
2021/01/27 09:38:04;;;;;;;2.23;1.70;;;;;;;4.06;53.57;95528.63;5070305;28;20278;-78
2021/01/27 09:40:33;;;;;;;3.20;2.17;;;;;;;4.21;53.83;95533.31;5070637;28;20209;-78
2021/01/27 09:43:05;;;;;;;2.70;2.10;;;;;;;4.35;52.94;95531.13;5070319;28;20205;-78
2021/01/27 09:45:34;;;;;;;2.63;2.40;;;;;;;4.47;52.57;95522.34;5070251;28;20193;-78
2021/01/27 09:48:05;;;;;;;3.30;2.00;;;;;;;4.46;51.92;95513.06;5070813;28;20700;-77
2021/01/27 09:50:32;;;;;;;2.50;2.03;;;;;;;4.48;51.88;95521.41;5070757;28;20201;-78
2021/01/27 09:53:00;;;;;;;3.07;2.30;;;;;;;4.62;50.86;95532.88;5070186;28;20225;-78
2021/01/27 09:55:28;;;;;;;2.33;1.83;;;;;;;4.78;51.53;95525.44;5070087;28;20201;-78
2021/01/27 09:57:55;;;;;;;2.73;2.07;;;;;;;4.86;51.21;95525.50;5070652;28;20232;-77
2021/01/27 10:00:31;;;;;;;3.03;1.87;;;;;;;4.95;50.54;95505.19;5070800;28;20201;-78
2021/01/27 10:03:11;;;;;;;5.07;2.00;;;;;;;5.08;49.83;95498.78;5070462;28;20200;-77
2021/01/27 10:05:39;;;;;;;3.90;2.57;;;;;;;4.98;49.46;95497.25;5070424;28;20204;-78
2021/01/27 10:08:15;;;;;;;4.63;2.10;;;;;;;5.03;50.48;95500.97;5070283;28;20224;-77
2021/01/27 10:10:42;;;;;;;3.57;2.33;;;;;;;5.02;50.58;95509.56;5070210;28;20269;-76
2021/01/27 10:13:10;;;;;;;4.67;2.47;;;;;;;4.89;50.06;95511.66;5070179;28;20234;-77
2021/01/27 10:15:37;;;;;;;3.20;2.27;;;;;;;4.85;51.02;95512.88;5069875;28;20676;-77
2021/01/27 10:18:07;;;;;;;2.20;2.00;;;;;;;4.83;50.35;95500.28;5070181;28;20221;-77
2021/01/27 10:20:36;;;;;;;5.13;3.93;;;;;;;4.83;49.94;95512.22;5070203;28;20215;-77
2021/01/27 10:23:05;;;;;;;7.50;2.53;;;;;;;4.88;50.07;95509.25;5069972;28;20193;-77
2021/01/27 10:25:36;;;;;;;3.07;2.07;;;;;;;4.86;49.92;95505.09;5069761;28;20223;-77
2021/01/27 10:28:21;;;;;;;2.00;1.80;;;;;;;4.79;49.68;95511.72;5069658;28;20235;-78
2021/01/27 10:30:51;;;;;;;3.53;2.10;;;;;;;4.63;49.55;95516.63;5069919;28;20676;-77
2021/01/27 10:33:40;;;;;;;4.20;1.90;;;;;;;4.53;50.35;95517.63;5070459;28;20220;-77
2021/01/27 10:36:29;;;;;;;3.63;1.97;;;;;;;4.59;50.69;95530.63;5073571;28;20265;-78
2021/01/27 10:39:22;;;;;;;2.57;1.60;;;;;;;4.66;50.82;95516.34;5073851;28;20679;-78
2021/01/27 10:41:52;;;;;;;2.43;1.50;;;;;;;4.84;49.95;95511.28;5073727;28;20676;-77
2021/01/27 10:44:26;;;;;;;2.20;1.57;;;;;;;4.86;49.04;95492.34;5073390;28;20211;-77
2021/01/27 10:46:55;;;;;;;1.60;1.50;;;;;;;4.86;48.81;95487.25;5073214;28;20231;-76
2021/01/27 10:49:21;;;;;;;2.57;1.67;;;;;;;5.04;49.58;95477.06;5073730;28;20201;-76
2021/01/27 10:51:47;;;;;;;2.23;1.80;;;;;;;5.15;48.63;95488.81;5071308;28;20201;-77
2021/01/27 10:54:20;;;;;;;1.93;1.73;;;;;;;5.18;48.88;95485.97;5053201;28;20252;-77
2021/01/27 10:56:50;;;;;;;2.43;1.90;;;;;;;5.19;48.97;95488.38;5053364;28;20240;-78
2021/01/27 10:59:16;;;;;;;3.13;1.73;;;;;;;5.21;49.69;95485.66;5053505;28;20206;-78
2021/01/27 11:01:42;;;;;;;5.27;1.87;;;;;;;5.18;49.36;95491.06;5053266;28;20728;-76
2021/01/27 11:04:09;;;;;;;2.90;1.70;;;;;;;5.08;48.86;95487.78;5053240;28;20198;-76
2021/01/27 11:06:35;;;;;;;1.97;1.47;;;;;;;5.03;49.01;95488.19;5053080;28;20221;-75
2021/01/27 11:09:01;;;;;;;3.27;1.97;;;;;;;5.07;48.95;95492.06;5053245;28;20205;-75
2021/01/27 11:11:27;;;;;;;1.77;1.67;;;;;;;5.12;49.02;95491.66;5053111;28;20222;-78
2021/01/27 11:13:52;;;;;;;2.53;1.60;;;;;;;5.05;48.42;95488.06;5052566;28;20221;-75
2021/01/27 11:16:20;;;;;;;3.20;1.70;;;;;;;5.01;48.83;95486.75;5053072;28;20190;-77
2021/01/27 11:18:46;;;;;;;2.83;1.93;;;;;;;4.96;48.21;95487.19;5053167;28;20208;-77
2021/01/27 11:21:13;;;;;;;2.63;1.57;;;;;;;4.97;48.22;95483.69;5052960;28;20201;-77
2021/01/27 11:23:39;;;;;;;2.67;1.50;;;;;;;5.04;48.43;95484.72;5052626;28;20197;-77
2021/01/27 11:26:05;;;;;;;1.87;1.70;;;;;;;5.00;48.36;95490.28;5052695;28;20741;-78
2021/01/27 11:28:31;;;;;;;1.60;1.50;;;;;;;4.85;47.47;95484.84;5052694;28;20247;-77
2021/01/27 11:30:58;;;;;;;11.10;7.60;;;;;;;4.68;48.18;95480.50;5052960;28;20201;-77
2021/01/27 11:33:24;;;;;;;6.13;2.00;;;;;;;4.50;48.05;95478.72;5052837;28;20612;-77
2021/01/27 11:35:51;;;;;;;3.23;1.70;;;;;;;4.47;48.51;95486.66;5052278;28;20197;-77
2021/01/27 11:38:19;;;;;;;2.80;1.60;;;;;;;4.47;48.67;95471.34;5052546;28;20228;-77
2021/01/27 11:40:45;;;;;;;1.93;1.60;;;;;;;4.51;49.06;95474.44;5052531;28;20332;-77
2021/01/27 11:43:11;;;;;;;1.60;1.50;;;;;;;4.60;49.19;95462.59;5052146;28;20232;-77
2021/01/27 11:45:37;;;;;;;1.80;1.63;;;;;;;4.60;49.86;95460.03;5051212;28;20208;-77
2021/01/27 11:48:03;;;;;;;1.80;1.67;;;;;;;4.68;49.93;95458.34;5052329;28;20225;-75
2021/01/27 11:50:30;;;;;;;1.67;1.40;;;;;;;5.02;65.81;95460.28;5054467;28;20741;-79
2021/01/27 11:52:56;;;;;;;1.93;1.40;;;;;;;5.68;62.14;95465.78;5057572;28;20221;-83
2021/01/27 11:55:23;;;;;;;1.93;1.70;;;;;;;5.89;53.51;95461.16;5056967;28;20201;-81
2021/01/27 11:57:49;;;;;;;1.93;1.60;;;;;;;5.94;48.26;95450.50;5054028;28;20237;-77
2021/01/27 12:00:18;;;;;;;4.20;1.83;;;;;;;5.72;48.38;95450.97;5052495;28;20209;-77
2021/01/27 12:02:44;;;;;;;2.00;1.73;;;;;;;5.22;48.50;95447.22;5071826;28;20204;-76
2021/01/27 12:05:11;;;;;;;2.37;1.80;;;;;;;4.92;48.75;95451.91;5071913;28;20262;-76